Hancock, Maine
Current Conditions -  °F | °C
As of 2:35 PM on Thursday 23 Oct 2014 (Local Time) from KBHB Reporting Station
Overcast Overcast  
Wind Chill: 52°   Ceiling: 800
Heat Index: 52°   Visibility: 7mi
Dew Point: 52°   Wind: 16mph
Humidity: 100%   Direction: 50°NE
Pressure: 29.8"   Gusts: 24mph
Location:  44.53°N, 68.25°W
Report Text: KBHB 231835Z AUTO 05014G21KT 7SM OVC008 11/11 A2980 RMK AO1
Loading
Personal Weather Stations






























Interactive Weather Map
Tropical Storm Tracking
New forecast layout! Learn more

10-Day Weather Forecast

Advertisements
Track Severe Weather on mobile